!!! Benutzen Sie für Ihre Flugvorbereitung die offiziellen Quellen !!!

Metar:

EDQM 121850Z 24010KT 9999 -SN BKN016 00/M03 Q1012

QNH: 1012
Temperatur: 0
Dew Point : -3

 

METAR (decoded)